Time;durP1;ratioP1;P1;durP2;ratioP2;P2;SDS_P1;SDS_P2;PMS_P1;PMS_P2;Temp;Humidity;BMP_temperature;BMP_pressure;BME280_temperature;BME280_humidity;BME280_pressure;Samples;Min_cycle;Max_cycle;Signal;HPM_P1;HPM_P2
2023/11/07 00:06:34;;;;;;;1.95;0.68;;;3.40;99.90;;;;;;25634057;23;20059;-50
2023/11/07 00:16:36;;;;;;;9.05;1.10;;;3.20;99.90;;;;;;25591493;23;20021;-50
2023/11/07 00:26:37;;;;;;;5.07;0.73;;;3.00;99.90;;;;;;25592982;23;20013;-48
2023/11/07 00:36:39;;;;;;;5.55;0.90;;;3.10;99.90;;;;;;25591645;23;20005;-48
2023/11/07 00:46:40;;;;;;;6.22;1.05;;;3.30;99.90;;;;;;25592671;23;20012;-58
2023/11/07 00:56:42;;;;;;;6.03;1.40;;;3.60;99.90;;;;;;25592667;23;20056;-49
2023/11/07 01:06:44;;;;;;;5.70;0.90;;;4.10;99.90;;;;;;25591712;23;20499;-55
2023/11/07 01:16:45;;;;;;;3.65;0.70;;;4.50;99.90;;;;;;25597003;23;20064;-49
2023/11/07 01:26:47;;;;;;;7.40;0.90;;;4.90;99.90;;;;;;25599012;23;20064;-58
2023/11/07 01:36:48;;;;;;;5.40;1.13;;;5.10;99.90;;;;;;25598060;23;20008;-58
2023/11/07 01:46:50;;;;;;;4.18;0.90;;;5.20;99.90;;;;;;25598388;23;20432;-50
2023/11/07 01:56:53;;;;;;;3.72;0.50;;;5.20;99.90;;;;;;25598642;23;20005;-56
2023/11/07 02:06:55;;;;;;;6.32;0.85;;;5.00;99.90;;;;;;25596570;23;20012;-50
2023/11/07 02:16:56;;;;;;;2.95;0.57;;;4.90;99.90;;;;;;25597873;23;20040;-49
2023/11/07 02:26:58;;;;;;;3.30;0.60;;;4.90;99.90;;;;;;25596628;23;20009;-48
2023/11/07 02:36:59;;;;;;;4.72;0.70;;;4.80;99.90;;;;;;25595884;23;20503;-46
2023/11/07 02:47:01;;;;;;;6.10;0.50;;;5.00;99.90;;;;;;25596662;23;20009;-51
2023/11/07 02:57:04;;;;;;;2.28;0.60;;;5.10;99.90;;;;;;25594697;23;20016;-51
2023/11/07 03:07:07;;;;;;;5.70;0.70;;;5.20;99.90;;;;;;25595358;23;20016;-48
2023/11/07 03:17:09;;;;;;;6.18;0.70;;;5.30;99.90;;;;;;25595004;23;20013;-51
2023/11/07 03:27:10;;;;;;;4.60;0.77;;;5.30;99.90;;;;;;25594939;23;20009;-49
2023/11/07 03:37:12;;;;;;;2.40;0.50;;;5.30;99.90;;;;;;25594069;23;20063;-48
2023/11/07 03:47:14;;;;;;;4.93;0.80;;;5.40;99.90;;;;;;25593207;23;20012;-52
2023/11/07 03:57:15;;;;;;;3.45;0.73;;;5.30;99.90;;;;;;25593206;23;20001;-48
2023/11/07 04:07:17;;;;;;;4.88;0.80;;;5.10;99.90;;;;;;25592189;23;20012;-49
2023/11/07 04:17:19;;;;;;;7.80;0.90;;;4.90;99.90;;;;;;25592657;23;20017;-48
2023/11/07 04:27:20;;;;;;;4.88;0.73;;;5.00;99.90;;;;;;25591750;23;20048;-50
2023/11/07 04:37:22;;;;;;;2.05;0.52;;;5.30;99.90;;;;;;25592001;23;20487;-49
2023/11/07 04:47:23;;;;;;;0.82;0.40;;;5.40;99.90;;;;;;25593542;23;20012;-50
2023/11/07 04:57:25;;;;;;;3.97;0.68;;;5.30;99.90;;;;;;25600144;23;20028;-51
2023/11/07 05:07:27;;;;;;;3.28;0.50;;;5.00;99.90;;;;;;25599802;23;20005;-46
2023/11/07 05:17:29;;;;;;;2.95;0.40;;;4.90;99.90;;;;;;25600106;23;20017;-51
2023/11/07 05:27:31;;;;;;;4.63;0.47;;;4.80;99.90;;;;;;25598406;23;20016;-48
2023/11/07 05:37:32;;;;;;;4.97;0.40;;;5.00;99.90;;;;;;25639706;23;20001;-49
2023/11/07 05:47:36;;;;;;;4.13;0.80;;;5.00;99.90;;;;;;25598106;23;20005;-46
2023/11/07 05:57:38;;;;;;;4.07;0.82;;;4.70;99.90;;;;;;25597272;23;20005;-49
2023/11/07 06:07:40;;;;;;;3.03;0.70;;;4.40;99.90;;;;;;25597386;23;20001;-51
2023/11/07 06:17:42;;;;;;;2.75;1.08;;;4.30;99.90;;;;;;25597199;23;20017;-57
2023/11/07 06:27:44;;;;;;;4.63;0.85;;;4.40;99.90;;;;;;25596323;23;20009;-50
2023/11/07 06:37:46;;;;;;;4.07;0.82;;;4.60;99.90;;;;;;25596714;23;20491;-47
2023/11/07 06:47:48;;;;;;;3.70;0.50;;;4.50;99.90;;;;;;25596078;23;20001;-47
2023/11/07 06:57:52;;;;;;;1.17;0.40;;;4.70;99.90;;;;;;25595452;23;20009;-49
2023/11/07 07:07:54;;;;;;;4.35;0.80;;;5.20;99.90;;;;;;25592719;23;20005;-49
2023/11/07 07:17:56;;;;;;;3.95;0.60;;;5.70;99.90;;;;;;25593949;23;20013;-51
2023/11/07 07:27:58;;;;;;;4.63;0.80;;;6.40;99.90;;;;;;25594550;23;20013;-59
2023/11/07 07:38:03;;;;;;;2.13;0.77;;;8.00;99.90;;;;;;25593927;23;20377;-47
2023/11/07 07:48:06;;;;;;;4.03;0.52;;;8.30;99.90;;;;;;25593307;23;20005;-50
2023/11/07 07:58:08;;;;;;;4.07;0.93;;;8.80;99.90;;;;;;25593424;23;20005;-49
2023/11/07 08:08:14;;;;;;;4.45;1.20;;;9.90;99.90;;;;;;25592469;23;20028;-48
2023/11/07 08:18:17;;;;;;;2.53;0.60;;;10.50;99.90;;;;;;25608498;23;20040;-51
2023/11/07 08:28:19;;;;;;;3.75;0.65;;;11.20;99.90;;;;;;25591423;23;20017;-50
2023/11/07 08:38:21;;;;;;;3.75;0.60;;;11.40;99.90;;;;;;25592244;23;20053;-52
2023/11/07 08:48:23;;;;;;;5.22;0.57;;;11.40;99.90;;;;;;25590367;23;20336;-58
2023/11/07 08:58:28;;;;;;;3.30;0.63;;;11.70;99.90;;;;;;25591808;23;20001;-51
2023/11/07 09:08:30;;;;;;;3.20;0.50;;;11.30;99.90;;;;;;25591394;23;20005;-58
2023/11/07 09:18:32;;;;;;;3.58;0.75;;;10.70;99.90;;;;;;25590960;23;20031;-57
2023/11/07 09:28:33;;;;;;;3.80;0.65;;;11.60;99.90;;;;;;25591384;23;20013;-51
2023/11/07 09:38:35;;;;;;;2.42;0.32;;;12.90;99.90;;;;;;25596797;23;20005;-58
2023/11/07 09:48:37;;;;;;;2.42;0.65;;;13.70;99.90;;;;;;25597496;23;20005;-58
2023/11/07 09:58:45;;;;;;;2.95;0.40;;;13.60;99.90;;;;;;25597971;23;20005;-58
2023/11/07 10:08:47;;;;;;;4.50;0.60;;;14.00;99.90;;;;;;25638905;23;20385;-58
2023/11/07 10:18:49;;;;;;;2.50;0.30;;;14.20;99.90;;;;;;25597127;23;20089;-49
2023/11/07 10:29:14;;;;;;;4.63;0.50;;;14.00;99.90;;;;;;25596882;23;20013;-58
2023/11/07 10:39:17;;;;;;;3.10;0.50;;;13.60;99.90;;;;;;25637800;23;20437;-58
2023/11/07 10:49:20;;;;;;;1.48;0.40;;;13.50;99.90;;;;;;25595343;23;20016;-58
2023/11/07 10:59:24;;;;;;;2.35;0.40;;;13.00;99.90;;;;;;25594959;23;20009;-58
2023/11/07 11:09:27;;;;;;;2.63;0.47;;;13.20;99.90;;;;;;25593846;23;20001;-59
2023/11/07 11:19:37;;;;;;;2.80;0.57;;;11.60;99.90;;;;;;25594418;23;20005;-50
2023/11/07 11:29:47;;;;;;;1.67;0.50;;;10.50;99.90;;;;;;25637382;23;20001;-59
2023/11/07 11:39:49;;;;;;;;;;;10.10;99.90;;;;;;25593940;23;20013;-51
2023/11/07 11:50:17;;;;;;;3.20;0.55;;;9.70;99.90;;;;;;25594140;23;19904;-51
2023/11/07 12:00:20;;;;;;;2.35;0.98;;;9.20;99.90;;;;;;25589722;23;20013;-47
2023/11/07 12:10:27;;;;;;;3.83;0.47;;;9.30;99.90;;;;;;25593184;23;20013;-51
2023/11/07 12:20:29;;;;;;;2.13;0.55;;;9.40;99.90;;;;;;25600074;23;20610;-48
2023/11/07 12:30:31;;;;;;;5.40;1.10;;;10.30;99.90;;;;;;25592351;23;20009;-50
2023/11/07 12:40:36;;;;;;;4.30;1.30;;;9.80;99.90;;;;;;25590851;23;20511;-58
2023/11/07 12:50:46;;;;;;;1.67;1.10;;;9.20;99.90;;;;;;25591331;23;20001;-59
2023/11/07 13:01:04;;;;;;;5.03;1.73;;;9.10;99.90;;;;;;25633815;23;20013;-49
2023/11/07 13:11:16;;;;;;;4.72;1.10;;;9.10;99.90;;;;;;25596278;23;20005;-58
2023/11/07 13:21:18;;;;;;;5.82;1.70;;;9.10;99.90;;;;;;25640459;23;20013;-58
2023/11/07 13:31:20;;;;;;;2.67;1.20;;;8.70;99.90;;;;;;25596667;23;20005;-51
2023/11/07 13:41:22;;;;;;;1.83;0.90;;;8.50;99.90;;;;;;25597711;23;20009;-51
2023/11/07 13:51:23;;;;;;;3.72;0.70;;;8.90;99.90;;;;;;25595937;23;20008;-58
2023/11/07 14:01:27;;;;;;;1.30;0.60;;;8.60;99.90;;;;;;25597085;23;20060;-58
2023/11/07 14:11:30;;;;;;;5.93;0.93;;;8.60;99.90;;;;;;25596468;23;20008;-57
2023/11/07 14:21:32;;;;;;;3.17;1.25;;;8.50;99.90;;;;;;25595448;23;20005;-57
2023/11/07 14:31:34;;;;;;;5.55;1.27;;;8.10;99.90;;;;;;25595413;23;20008;-49
2023/11/07 14:41:36;;;;;;;4.03;1.00;;;7.80;99.90;;;;;;25593345;23;20345;-58
2023/11/07 14:51:38;;;;;;;3.90;1.33;;;7.70;99.90;;;;;;25594326;23;20005;-51
2023/11/07 15:01:40;;;;;;;3.00;1.60;;;7.40;99.90;;;;;;25594071;23;20376;-47
2023/11/07 15:11:46;;;;;;;2.95;1.73;;;7.40;99.90;;;;;;25594193;23;20005;-58
2023/11/07 15:21:47;;;;;;;4.10;2.20;;;7.20;99.90;;;;;;25634813;23;20059;-51
2023/11/07 15:31:50;;;;;;;7.63;3.42;;;7.00;99.90;;;;;;25593285;23;20067;-58
2023/11/07 15:41:51;;;;;;;5.32;3.65;;;6.90;99.90;;;;;;25591648;23;20013;-46
2023/11/07 15:51:53;;;;;;;6.97;3.08;;;6.90;99.90;;;;;;25591713;23;20019;-48
2023/11/07 16:01:55;;;;;;;5.25;2.30;;;6.70;99.90;;;;;;25592072;23;20013;-58
2023/11/07 16:11:57;;;;;;;4.03;1.85;;;6.10;99.90;;;;;;25591585;23;20075;-58
2023/11/07 16:21:58;;;;;;;4.00;1.70;;;5.40;99.90;;;;;;25590984;23;20013;-57
2023/11/07 16:32:00;;;;;;;4.95;1.30;;;4.70;99.90;;;;;;25592080;23;20032;-58
2023/11/07 16:42:03;;;;;;;2.72;1.70;;;4.20;99.90;;;;;;25591403;23;20065;-57
2023/11/07 16:52:07;;;;;;;4.43;1.30;;;4.20;99.90;;;;;;25591831;23;20075;-58
2023/11/07 17:02:09;;;;;;;5.32;1.30;;;4.20;99.90;;;;;;25592775;23;20013;-48
2023/11/07 17:12:12;;;;;;;3.58;1.00;;;3.90;99.90;;;;;;25591823;23;20001;-49
2023/11/07 17:22:15;;;;;;;3.83;1.13;;;3.80;99.90;;;;;;25591590;23;20008;-58
2023/11/07 17:32:16;;;;;;;2.03;0.85;;;4.30;99.90;;;;;;25590529;23;20020;-58
2023/11/07 17:42:18;;;;;;;1.23;0.70;;;4.50;99.90;;;;;;25590738;23;20487;-58
2023/11/07 17:52:20;;;;;;;0.85;0.63;;;4.10;99.90;;;;;;25590151;23;20437;-58
2023/11/07 18:02:26;;;;;;;0.80;0.45;;;4.20;99.90;;;;;;25597358;23;20009;-58
2023/11/07 18:12:28;;;;;;;0.90;0.52;;;3.90;99.90;;;;;;25638698;23;20333;-58
2023/11/07 18:22:29;;;;;;;1.00;0.50;;;3.50;99.90;;;;;;25597068;23;20005;-58
2023/11/07 18:32:31;;;;;;;0.80;0.40;;;3.40;99.90;;;;;;25596821;23;20001;-58
2023/11/07 18:42:33;;;;;;;2.78;0.50;;;3.50;99.90;;;;;;25595674;23;20051;-51
2023/11/07 18:52:35;;;;;;;1.90;0.40;;;3.20;99.90;;;;;;25593796;23;20385;-58
2023/11/07 19:02:37;;;;;;;1.23;0.30;;;2.90;99.90;;;;;;25596720;23;20001;-58
2023/11/07 19:12:38;;;;;;;0.63;0.30;;;2.70;99.90;;;;;;25595390;23;20314;-57
2023/11/07 19:22:40;;;;;;;0.77;0.38;;;2.30;99.90;;;;;;25594994;23;20005;-58
2023/11/07 19:32:42;;;;;;;0.73;0.30;;;2.20;99.90;;;;;;25594812;23;20433;-58
2023/11/07 19:42:47;;;;;;;0.70;0.30;;;2.10;99.90;;;;;;25593084;23;20013;-52
2023/11/07 19:52:49;;;;;;;0.52;0.25;;;2.70;99.90;;;;;;25592187;23;20035;-49
2023/11/07 20:02:51;;;;;;;0.63;0.20;;;2.80;99.90;;;;;;25592234;23;20009;-58
2023/11/07 20:12:53;;;;;;;0.43;0.20;;;3.00;99.90;;;;;;25593926;23;20012;-50
2023/11/07 20:22:55;;;;;;;0.32;0.15;;;3.00;99.90;;;;;;25592798;23;20005;-47
2023/11/07 20:32:59;;;;;;;0.40;0.20;;;2.70;99.90;;;;;;25591945;23;20005;-47
2023/11/07 20:43:04;;;;;;;0.50;0.20;;;2.40;99.90;;;;;;25592886;23;20013;-58
2023/11/07 20:53:06;;;;;;;2.10;0.20;;;4.10;99.90;;;;;;25591037;23;20009;-57
2023/11/07 21:03:08;;;;;;;1.00;0.40;;;4.30;99.90;;;;;;25592560;23;20001;-59
2023/11/07 21:13:10;;;;;;;0.90;0.30;;;4.20;99.90;;;;;;25592514;23;20009;-57
2023/11/07 21:23:16;;;;;;;0.57;0.20;;;3.80;99.90;;;;;;25591137;23;20009;-50
2023/11/07 21:33:18;;;;;;;0.60;0.20;;;3.80;99.90;;;;;;25594552;23;20005;-49
2023/11/07 21:43:20;;;;;;;0.20;0.10;;;3.60;99.90;;;;;;25598722;23;20021;-48
2023/11/07 21:53:26;;;;;;;0.73;0.25;;;3.20;99.90;;;;;;25598453;23;20064;-51
2023/11/07 22:03:28;;;;;;;1.17;0.40;;;2.90;99.90;;;;;;25597783;23;20009;-51
2023/11/07 22:13:30;;;;;;;2.00;0.50;;;2.40;99.90;;;;;;25597957;23;20013;-58
2023/11/07 22:23:32;;;;;;;0.95;0.30;;;2.60;99.90;;;;;;25597333;23;20309;-58
2023/11/07 22:33:33;;;;;;;0.50;0.22;;;2.30;99.90;;;;;;25596920;23;20012;-58
2023/11/07 22:43:37;;;;;;;0.73;0.20;;;2.00;99.90;;;;;;25595037;23;20017;-49
2023/11/07 22:53:40;;;;;;;0.50;0.22;;;1.80;99.90;;;;;;25596393;23;20431;-47
2023/11/07 23:03:41;;;;;;;0.17;0.10;;;1.50;99.90;;;;;;25595582;23;20016;-46
2023/11/07 23:13:43;;;;;;;1.30;0.20;;;1.40;99.90;;;;;;25595365;23;20008;-47
2023/11/07 23:23:45;;;;;;;0.10;0.00;;;1.60;99.90;;;;;;25594861;23;20001;-58
2023/11/07 23:33:47;;;;;;;0.35;0.10;;;1.70;99.90;;;;;;25594655;23;20332;-58
2023/11/07 23:43:49;;;;;;;0.40;0.20;;;1.80;99.90;;;;;;25594662;23;20499;-58
2023/11/07 23:53:50;;;;;;;0.20;0.10;;;1.90;99.90;;;;;;25594089;23;20013;-58
